sensor_id;sensor_type;location;lat;lon;timestamp;P1;durP1;ratioP1;P2;durP2;ratioP2
53925;SDS011;39836;52.754;6.866;2023-02-28T00:00:25;8.20;;;5.85;;
53925;SDS011;39836;52.754;6.866;2023-02-28T00:02:51;12.25;;;5.47;;
53925;SDS011;39836;52.754;6.866;2023-02-28T00:05:18;13.95;;;6.35;;
53925;SDS011;39836;52.754;6.866;2023-02-28T00:07:46;11.93;;;5.47;;
53925;SDS011;39836;52.754;6.866;2023-02-28T00:10:13;10.45;;;5.82;;
53925;SDS011;39836;52.754;6.866;2023-02-28T00:12:45;11.18;;;6.20;;
53925;SDS011;39836;52.754;6.866;2023-02-28T00:15:12;12.63;;;6.43;;
53925;SDS011;39836;52.754;6.866;2023-02-28T00:17:37;12.80;;;5.97;;
53925;SDS011;39836;52.754;6.866;2023-02-28T00:20:04;11.77;;;6.10;;
53925;SDS011;39836;52.754;6.866;2023-02-28T00:22:35;11.48;;;6.57;;
53925;SDS011;39836;52.754;6.866;2023-02-28T00:25:02;13.20;;;6.68;;
53925;SDS011;39836;52.754;6.866;2023-02-28T00:27:28;11.40;;;6.30;;
53925;SDS011;39836;52.754;6.866;2023-02-28T00:29:55;11.25;;;6.38;;
53925;SDS011;39836;52.754;6.866;2023-02-28T00:32:20;13.35;;;6.70;;
53925;SDS011;39836;52.754;6.866;2023-02-28T00:34:46;10.77;;;6.35;;
53925;SDS011;39836;52.754;6.866;2023-02-28T00:37:12;12.43;;;6.50;;
53925;SDS011;39836;52.754;6.866;2023-02-28T00:39:38;12.65;;;6.22;;
53925;SDS011;39836;52.754;6.866;2023-02-28T00:42:04;12.93;;;6.05;;
53925;SDS011;39836;52.754;6.866;2023-02-28T00:44:31;10.35;;;5.93;;
53925;SDS011;39836;52.754;6.866;2023-02-28T00:46:57;11.50;;;6.22;;
53925;SDS011;39836;52.754;6.866;2023-02-28T00:49:23;11.70;;;6.32;;
53925;SDS011;39836;52.754;6.866;2023-02-28T00:51:50;14.63;;;6.55;;
53925;SDS011;39836;52.754;6.866;2023-02-28T00:54:16;11.23;;;6.63;;
53925;SDS011;39836;52.754;6.866;2023-02-28T00:56:42;8.85;;;6.18;;
53925;SDS011;39836;52.754;6.866;2023-02-28T00:59:08;16.38;;;7.03;;
53925;SDS011;39836;52.754;6.866;2023-02-28T01:01:33;14.02;;;6.43;;
53925;SDS011;39836;52.754;6.866;2023-02-28T01:03:59;13.20;;;6.53;;
53925;SDS011;39836;52.754;6.866;2023-02-28T01:06:25;13.45;;;7.20;;
53925;SDS011;39836;52.754;6.866;2023-02-28T01:08:51;13.02;;;6.97;;
53925;SDS011;39836;52.754;6.866;2023-02-28T01:11:17;9.05;;;6.15;;
53925;SDS011;39836;52.754;6.866;2023-02-28T01:13:44;11.00;;;6.22;;
53925;SDS011;39836;52.754;6.866;2023-02-28T01:16:11;13.13;;;6.35;;
53925;SDS011;39836;52.754;6.866;2023-02-28T01:18:37;14.32;;;6.32;;
53925;SDS011;39836;52.754;6.866;2023-02-28T01:21:07;11.82;;;6.22;;
53925;SDS011;39836;52.754;6.866;2023-02-28T01:23:35;10.10;;;6.65;;
53925;SDS011;39836;52.754;6.866;2023-02-28T01:26:20;13.40;;;6.93;;
53925;SDS011;39836;52.754;6.866;2023-02-28T01:28:48;11.48;;;6.63;;
53925;SDS011;39836;52.754;6.866;2023-02-28T01:31:14;9.95;;;6.75;;
53925;SDS011;39836;52.754;6.866;2023-02-28T01:33:40;10.05;;;6.82;;
53925;SDS011;39836;52.754;6.866;2023-02-28T01:36:08;13.88;;;6.43;;
53925;SDS011;39836;52.754;6.866;2023-02-28T01:38:36;9.63;;;6.45;;
53925;SDS011;39836;52.754;6.866;2023-02-28T01:41:03;12.40;;;6.80;;
53925;SDS011;39836;52.754;6.866;2023-02-28T01:43:31;13.05;;;6.88;;
53925;SDS011;39836;52.754;6.866;2023-02-28T01:46:09;17.67;;;6.70;;
53925;SDS011;39836;52.754;6.866;2023-02-28T01:48:44;12.00;;;6.72;;
53925;SDS011;39836;52.754;6.866;2023-02-28T01:51:46;12.35;;;7.32;;
53925;SDS011;39836;52.754;6.866;2023-02-28T01:54:27;10.23;;;6.75;;
53925;SDS011;39836;52.754;6.866;2023-02-28T01:57:01;16.80;;;6.78;;
53925;SDS011;39836;52.754;6.866;2023-02-28T01:59:37;16.95;;;7.93;;
53925;SDS011;39836;52.754;6.866;2023-02-28T02:02:11;13.27;;;7.43;;
53925;SDS011;39836;52.754;6.866;2023-02-28T02:04:58;13.20;;;8.18;;
53925;SDS011;39836;52.754;6.866;2023-02-28T02:07:29;15.98;;;8.30;;
53925;SDS011;39836;52.754;6.866;2023-02-28T02:10:00;10.77;;;7.63;;
53925;SDS011;39836;52.754;6.866;2023-02-28T02:12:33;11.32;;;6.85;;
53925;SDS011;39836;52.754;6.866;2023-02-28T02:15:14;12.75;;;7.57;;
53925;SDS011;39836;52.754;6.866;2023-02-28T02:17:51;12.55;;;7.85;;
53925;SDS011;39836;52.754;6.866;2023-02-28T02:20:32;13.13;;;8.10;;
53925;SDS011;39836;52.754;6.866;2023-02-28T02:32:13;12.30;;;7.97;;
53925;SDS011;39836;52.754;6.866;2023-02-28T02:40:30;14.30;;;8.02;;
53925;SDS011;39836;52.754;6.866;2023-02-28T02:43:02;14.98;;;9.05;;
53925;SDS011;39836;52.754;6.866;2023-02-28T02:45:45;15.70;;;9.02;;
53925;SDS011;39836;52.754;6.866;2023-02-28T02:48:20;14.55;;;9.30;;
53925;SDS011;39836;52.754;6.866;2023-02-28T02:50:51;12.88;;;8.45;;
53925;SDS011;39836;52.754;6.866;2023-02-28T02:53:21;13.63;;;8.88;;
53925;SDS011;39836;52.754;6.866;2023-02-28T02:56:00;15.88;;;8.65;;
53925;SDS011;39836;52.754;6.866;2023-02-28T02:58:29;13.95;;;8.73;;
53925;SDS011;39836;52.754;6.866;2023-02-28T03:01:00;13.25;;;8.18;;
53925;SDS011;39836;52.754;6.866;2023-02-28T03:03:27;19.20;;;9.13;;
53925;SDS011;39836;52.754;6.866;2023-02-28T03:05:58;16.95;;;9.63;;
53925;SDS011;39836;52.754;6.866;2023-02-28T03:08:25;13.88;;;8.77;;
53925;SDS011;39836;52.754;6.866;2023-02-28T03:10:55;15.13;;;9.10;;
53925;SDS011;39836;52.754;6.866;2023-02-28T03:16:22;15.52;;;8.88;;
53925;SDS011;39836;52.754;6.866;2023-02-28T03:24:26;17.73;;;8.95;;
53925;SDS011;39836;52.754;6.866;2023-02-28T03:27:16;16.13;;;9.38;;
53925;SDS011;39836;52.754;6.866;2023-02-28T03:29:46;16.50;;;9.02;;
53925;SDS011;39836;52.754;6.866;2023-02-28T03:32:18;14.93;;;9.30;;
53925;SDS011;39836;52.754;6.866;2023-02-28T03:34:57;15.52;;;8.73;;
53925;SDS011;39836;52.754;6.866;2023-02-28T03:37:29;15.85;;;9.70;;
53925;SDS011;39836;52.754;6.866;2023-02-28T03:40:02;13.18;;;8.98;;
53925;SDS011;39836;52.754;6.866;2023-02-28T03:42:39;13.60;;;9.48;;
53925;SDS011;39836;52.754;6.866;2023-02-28T03:47:41;20.60;;;10.23;;
53925;SDS011;39836;52.754;6.866;2023-02-28T03:50:28;15.38;;;9.27;;
53925;SDS011;39836;52.754;6.866;2023-02-28T03:53:09;16.38;;;9.98;;
53925;SDS011;39836;52.754;6.866;2023-02-28T03:55:40;14.00;;;8.63;;
53925;SDS011;39836;52.754;6.866;2023-02-28T03:58:20;16.90;;;10.55;;
53925;SDS011;39836;52.754;6.866;2023-02-28T04:01:19;18.92;;;11.60;;
53925;SDS011;39836;52.754;6.866;2023-02-28T04:04:03;19.38;;;11.30;;
53925;SDS011;39836;52.754;6.866;2023-02-28T04:06:30;18.42;;;10.70;;
53925;SDS011;39836;52.754;6.866;2023-02-28T04:08:57;17.63;;;11.00;;
53925;SDS011;39836;52.754;6.866;2023-02-28T04:11:31;16.40;;;10.73;;
53925;SDS011;39836;52.754;6.866;2023-02-28T04:14:02;16.35;;;10.88;;
53925;SDS011;39836;52.754;6.866;2023-02-28T04:16:33;16.60;;;11.23;;
53925;SDS011;39836;52.754;6.866;2023-02-28T04:19:00;17.67;;;10.27;;
53925;SDS011;39836;52.754;6.866;2023-02-28T04:21:49;16.48;;;10.75;;
53925;SDS011;39836;52.754;6.866;2023-02-28T04:24:18;17.70;;;11.25;;
53925;SDS011;39836;52.754;6.866;2023-02-28T04:26:46;20.73;;;11.15;;
53925;SDS011;39836;52.754;6.866;2023-02-28T04:29:14;19.38;;;10.48;;
53925;SDS011;39836;52.754;6.866;2023-02-28T04:31:44;15.75;;;10.60;;
53925;SDS011;39836;52.754;6.866;2023-02-28T04:34:09;19.17;;;10.93;;
53925;SDS011;39836;52.754;6.866;2023-02-28T04:36:35;17.02;;;11.18;;
53925;SDS011;39836;52.754;6.866;2023-02-28T04:39:01;16.08;;;10.40;;
53925;SDS011;39836;52.754;6.866;2023-02-28T04:41:26;18.65;;;11.23;;
53925;SDS011;39836;52.754;6.866;2023-02-28T04:43:52;16.52;;;10.20;;
53925;SDS011;39836;52.754;6.866;2023-02-28T04:46:18;15.57;;;10.10;;
53925;SDS011;39836;52.754;6.866;2023-02-28T04:48:44;14.68;;;10.18;;
53925;SDS011;39836;52.754;6.866;2023-02-28T04:51:11;14.23;;;9.90;;
53925;SDS011;39836;52.754;6.866;2023-02-28T04:53:39;16.42;;;9.80;;
53925;SDS011;39836;52.754;6.866;2023-02-28T04:56:06;15.77;;;9.80;;
53925;SDS011;39836;52.754;6.866;2023-02-28T04:58:32;14.38;;;10.38;;
53925;SDS011;39836;52.754;6.866;2023-02-28T05:01:03;14.73;;;9.02;;
53925;SDS011;39836;52.754;6.866;2023-02-28T05:03:37;15.73;;;9.50;;
53925;SDS011;39836;52.754;6.866;2023-02-28T05:06:05;15.95;;;9.57;;
53925;SDS011;39836;52.754;6.866;2023-02-28T05:08:32;16.48;;;9.70;;
53925;SDS011;39836;52.754;6.866;2023-02-28T05:10:58;19.10;;;9.73;;
53925;SDS011;39836;52.754;6.866;2023-02-28T05:13:26;17.77;;;9.43;;
53925;SDS011;39836;52.754;6.866;2023-02-28T05:15:52;15.30;;;9.70;;
53925;SDS011;39836;52.754;6.866;2023-02-28T05:18:17;14.60;;;9.75;;
53925;SDS011;39836;52.754;6.866;2023-02-28T05:20:43;15.93;;;9.23;;
53925;SDS011;39836;52.754;6.866;2023-02-28T05:23:12;16.42;;;9.13;;
53925;SDS011;39836;52.754;6.866;2023-02-28T05:25:39;14.88;;;8.93;;
53925;SDS011;39836;52.754;6.866;2023-02-28T05:28:05;13.63;;;8.57;;
53925;SDS011;39836;52.754;6.866;2023-02-28T05:30:31;14.70;;;9.32;;
53925;SDS011;39836;52.754;6.866;2023-02-28T05:32:57;15.55;;;8.70;;
53925;SDS011;39836;52.754;6.866;2023-02-28T05:35:24;11.65;;;9.27;;
53925;SDS011;39836;52.754;6.866;2023-02-28T05:37:50;13.48;;;9.40;;
53925;SDS011;39836;52.754;6.866;2023-02-28T05:40:16;14.07;;;9.40;;
53925;SDS011;39836;52.754;6.866;2023-02-28T05:42:42;15.43;;;9.23;;
53925;SDS011;39836;52.754;6.866;2023-02-28T05:45:08;14.40;;;8.35;;
53925;SDS011;39836;52.754;6.866;2023-02-28T05:47:34;14.52;;;8.55;;
53925;SDS011;39836;52.754;6.866;2023-02-28T05:50:01;11.45;;;9.73;;
53925;SDS011;39836;52.754;6.866;2023-02-28T05:52:27;15.52;;;9.95;;
53925;SDS011;39836;52.754;6.866;2023-02-28T05:54:54;13.95;;;9.95;;
53925;SDS011;39836;52.754;6.866;2023-02-28T05:57:21;15.30;;;8.98;;
53925;SDS011;39836;52.754;6.866;2023-02-28T05:59:47;12.73;;;9.07;;
53925;SDS011;39836;52.754;6.866;2023-02-28T06:02:13;14.40;;;10.10;;
53925;SDS011;39836;52.754;6.866;2023-02-28T06:04:40;12.45;;;8.93;;
53925;SDS011;39836;52.754;6.866;2023-02-28T06:07:07;14.73;;;9.90;;
53925;SDS011;39836;52.754;6.866;2023-02-28T06:09:33;17.80;;;10.98;;
53925;SDS011;39836;52.754;6.866;2023-02-28T06:11:59;15.13;;;9.30;;
53925;SDS011;39836;52.754;6.866;2023-02-28T06:14:28;14.55;;;9.57;;
53925;SDS011;39836;52.754;6.866;2023-02-28T06:16:56;16.45;;;9.45;;
53925;SDS011;39836;52.754;6.866;2023-02-28T06:19:22;12.25;;;8.63;;
53925;SDS011;39836;52.754;6.866;2023-02-28T06:21:50;17.17;;;10.27;;
53925;SDS011;39836;52.754;6.866;2023-02-28T06:24:20;12.68;;;10.43;;
53925;SDS011;39836;52.754;6.866;2023-02-28T06:26:47;17.65;;;12.35;;
53925;SDS011;39836;52.754;6.866;2023-02-28T06:29:13;18.63;;;12.05;;
53925;SDS011;39836;52.754;6.866;2023-02-28T06:31:43;10.73;;;8.70;;
53925;SDS011;39836;52.754;6.866;2023-02-28T06:34:10;10.85;;;8.40;;
53925;SDS011;39836;52.754;6.866;2023-02-28T06:36:38;12.02;;;9.40;;
53925;SDS011;39836;52.754;6.866;2023-02-28T06:39:05;12.38;;;9.18;;
53925;SDS011;39836;52.754;6.866;2023-02-28T06:41:31;13.38;;;9.50;;
53925;SDS011;39836;52.754;6.866;2023-02-28T06:44:03;13.82;;;9.65;;
53925;SDS011;39836;52.754;6.866;2023-02-28T06:46:43;15.02;;;9.38;;
53925;SDS011;39836;52.754;6.866;2023-02-28T06:49:10;16.58;;;9.23;;
53925;SDS011;39836;52.754;6.866;2023-02-28T06:51:37;12.57;;;9.30;;
53925;SDS011;39836;52.754;6.866;2023-02-28T06:54:06;13.35;;;9.55;;
53925;SDS011;39836;52.754;6.866;2023-02-28T06:56:35;12.40;;;8.82;;
53925;SDS011;39836;52.754;6.866;2023-02-28T06:59:02;12.07;;;9.30;;
53925;SDS011;39836;52.754;6.866;2023-02-28T07:01:28;14.02;;;9.50;;
53925;SDS011;39836;52.754;6.866;2023-02-28T07:03:56;15.02;;;9.35;;
53925;SDS011;39836;52.754;6.866;2023-02-28T07:06:22;16.17;;;9.10;;
53925;SDS011;39836;52.754;6.866;2023-02-28T07:08:50;13.75;;;8.88;;
53925;SDS011;39836;52.754;6.866;2023-02-28T07:11:17;14.73;;;10.23;;
53925;SDS011;39836;52.754;6.866;2023-02-28T07:13:43;11.95;;;9.45;;
53925;SDS011;39836;52.754;6.866;2023-02-28T07:16:10;10.48;;;8.50;;
53925;SDS011;39836;52.754;6.866;2023-02-28T07:18:36;10.57;;;9.27;;
53925;SDS011;39836;52.754;6.866;2023-02-28T07:21:06;20.77;;;12.13;;
53925;SDS011;39836;52.754;6.866;2023-02-28T07:23:34;10.98;;;8.80;;
53925;SDS011;39836;52.754;6.866;2023-02-28T07:26:03;15.82;;;8.90;;
53925;SDS011;39836;52.754;6.866;2023-02-28T07:28:36;11.27;;;8.43;;
53925;SDS011;39836;52.754;6.866;2023-02-28T07:31:05;13.13;;;8.82;;
53925;SDS011;39836;52.754;6.866;2023-02-28T07:33:31;12.27;;;8.40;;
53925;SDS011;39836;52.754;6.866;2023-02-28T07:36:17;12.35;;;9.00;;
53925;SDS011;39836;52.754;6.866;2023-02-28T07:38:47;12.93;;;8.32;;
53925;SDS011;39836;52.754;6.866;2023-02-28T07:41:18;15.95;;;9.18;;
53925;SDS011;39836;52.754;6.866;2023-02-28T07:43:45;12.00;;;8.90;;
53925;SDS011;39836;52.754;6.866;2023-02-28T07:46:12;21.25;;;12.40;;
53925;SDS011;39836;52.754;6.866;2023-02-28T07:48:42;22.23;;;12.98;;
53925;SDS011;39836;52.754;6.866;2023-02-28T07:51:09;15.45;;;10.23;;
53925;SDS011;39836;52.754;6.866;2023-02-28T07:53:35;23.13;;;9.23;;
53925;SDS011;39836;52.754;6.866;2023-02-28T07:56:01;12.15;;;8.70;;
53925;SDS011;39836;52.754;6.866;2023-02-28T07:58:30;16.17;;;8.90;;
53925;SDS011;39836;52.754;6.866;2023-02-28T08:00:56;13.55;;;9.02;;
53925;SDS011;39836;52.754;6.866;2023-02-28T08:03:23;13.40;;;9.23;;
53925;SDS011;39836;52.754;6.866;2023-02-28T08:05:49;14.20;;;9.52;;
53925;SDS011;39836;52.754;6.866;2023-02-28T08:08:16;13.45;;;8.98;;
53925;SDS011;39836;52.754;6.866;2023-02-28T08:10:42;14.88;;;9.50;;
53925;SDS011;39836;52.754;6.866;2023-02-28T08:13:08;11.38;;;7.80;;
53925;SDS011;39836;52.754;6.866;2023-02-28T08:15:34;12.90;;;8.65;;
53925;SDS011;39836;52.754;6.866;2023-02-28T08:17:59;14.20;;;8.43;;
53925;SDS011;39836;52.754;6.866;2023-02-28T08:20:25;14.15;;;7.43;;
53925;SDS011;39836;52.754;6.866;2023-02-28T08:22:52;9.20;;;7.13;;
53925;SDS011;39836;52.754;6.866;2023-02-28T08:25:18;17.30;;;11.68;;
53925;SDS011;39836;52.754;6.866;2023-02-28T08:27:44;19.98;;;12.38;;
53925;SDS011;39836;52.754;6.866;2023-02-28T08:30:10;16.10;;;10.27;;
53925;SDS011;39836;52.754;6.866;2023-02-28T08:32:37;20.13;;;10.90;;
53925;SDS011;39836;52.754;6.866;2023-02-28T08:35:04;13.65;;;10.70;;
53925;SDS011;39836;52.754;6.866;2023-02-28T08:37:30;15.30;;;10.30;;
53925;SDS011;39836;52.754;6.866;2023-02-28T08:39:56;12.88;;;10.13;;
53925;SDS011;39836;52.754;6.866;2023-02-28T08:42:22;15.18;;;10.38;;
53925;SDS011;39836;52.754;6.866;2023-02-28T08:44:48;13.55;;;10.00;;
53925;SDS011;39836;52.754;6.866;2023-02-28T08:47:14;15.00;;;9.57;;
53925;SDS011;39836;52.754;6.866;2023-02-28T08:49:39;13.43;;;10.32;;
53925;SDS011;39836;52.754;6.866;2023-02-28T08:52:05;14.27;;;9.85;;
53925;SDS011;39836;52.754;6.866;2023-02-28T08:54:31;14.45;;;9.70;;
53925;SDS011;39836;52.754;6.866;2023-02-28T08:56:58;11.93;;;9.63;;
53925;SDS011;39836;52.754;6.866;2023-02-28T08:59:24;14.75;;;9.45;;
53925;SDS011;39836;52.754;6.866;2023-02-28T09:01:49;14.32;;;8.00;;
53925;SDS011;39836;52.754;6.866;2023-02-28T09:04:15;12.30;;;7.38;;
53925;SDS011;39836;52.754;6.866;2023-02-28T09:06:41;11.25;;;7.57;;
53925;SDS011;39836;52.754;6.866;2023-02-28T09:09:06;12.63;;;7.18;;
53925;SDS011;39836;52.754;6.866;2023-02-28T09:11:33;10.50;;;7.50;;
53925;SDS011;39836;52.754;6.866;2023-02-28T09:14:00;8.48;;;6.68;;
53925;SDS011;39836;52.754;6.866;2023-02-28T09:16:28;8.60;;;5.25;;
53925;SDS011;39836;52.754;6.866;2023-02-28T09:18:54;7.03;;;5.70;;
53925;SDS011;39836;52.754;6.866;2023-02-28T09:21:20;6.75;;;4.65;;
53925;SDS011;39836;52.754;6.866;2023-02-28T09:23:47;6.25;;;4.32;;
53925;SDS011;39836;52.754;6.866;2023-02-28T09:26:14;7.30;;;4.07;;
53925;SDS011;39836;52.754;6.866;2023-02-28T09:28:48;6.80;;;3.50;;
53925;SDS011;39836;52.754;6.866;2023-02-28T09:31:15;7.22;;;4.20;;
53925;SDS011;39836;52.754;6.866;2023-02-28T09:33:46;6.22;;;3.83;;
53925;SDS011;39836;52.754;6.866;2023-02-28T09:36:12;5.65;;;4.07;;
53925;SDS011;39836;52.754;6.866;2023-02-28T09:38:38;9.40;;;4.30;;
53925;SDS011;39836;52.754;6.866;2023-02-28T09:41:10;6.82;;;4.43;;
53925;SDS011;39836;52.754;6.866;2023-02-28T09:43:40;5.80;;;4.30;;
53925;SDS011;39836;52.754;6.866;2023-02-28T09:48:45;3.60;;;2.83;;
53925;SDS011;39836;52.754;6.866;2023-02-28T09:54:09;6.13;;;3.33;;
53925;SDS011;39836;52.754;6.866;2023-02-28T09:56:44;6.05;;;2.88;;
53925;SDS011;39836;52.754;6.866;2023-02-28T10:05:08;3.28;;;2.97;;
53925;SDS011;39836;52.754;6.866;2023-02-28T10:07:48;4.43;;;3.17;;
53925;SDS011;39836;52.754;6.866;2023-02-28T10:10:49;4.65;;;3.00;;
53925;SDS011;39836;52.754;6.866;2023-02-28T10:16:07;4.82;;;2.67;;
53925;SDS011;39836;52.754;6.866;2023-02-28T10:18:42;4.78;;;3.05;;
53925;SDS011;39836;52.754;6.866;2023-02-28T10:21:20;4.45;;;3.10;;
53925;SDS011;39836;52.754;6.866;2023-02-28T10:23:51;6.60;;;3.27;;
53925;SDS011;39836;52.754;6.866;2023-02-28T10:26:24;4.30;;;3.03;;
53925;SDS011;39836;52.754;6.866;2023-02-28T10:28:53;5.03;;;2.95;;
53925;SDS011;39836;52.754;6.866;2023-02-28T10:31:19;5.43;;;3.13;;
53925;SDS011;39836;52.754;6.866;2023-02-28T10:33:45;4.20;;;2.65;;
53925;SDS011;39836;52.754;6.866;2023-02-28T10:36:13;6.05;;;3.00;;
53925;SDS011;39836;52.754;6.866;2023-02-28T10:38:42;5.20;;;3.00;;
53925;SDS011;39836;52.754;6.866;2023-02-28T10:41:10;10.48;;;3.30;;
53925;SDS011;39836;52.754;6.866;2023-02-28T10:43:41;4.65;;;2.95;;
53925;SDS011;39836;52.754;6.866;2023-02-28T10:51:02;4.32;;;2.90;;
53925;SDS011;39836;52.754;6.866;2023-02-28T10:53:31;5.07;;;3.00;;
53925;SDS011;39836;52.754;6.866;2023-02-28T10:58:51;6.18;;;3.25;;
53925;SDS011;39836;52.754;6.866;2023-02-28T11:01:43;5.30;;;3.22;;
53925;SDS011;39836;52.754;6.866;2023-02-28T11:07:39;3.95;;;2.90;;
53925;SDS011;39836;52.754;6.866;2023-02-28T11:09:51;6.32;;;3.45;;
53925;SDS011;39836;52.754;6.866;2023-02-28T11:12:23;6.22;;;3.25;;
53925;SDS011;39836;52.754;6.866;2023-02-28T11:15:05;3.75;;;2.75;;
53925;SDS011;39836;52.754;6.866;2023-02-28T11:18:17;3.58;;;3.00;;
53925;SDS011;39836;52.754;6.866;2023-02-28T11:20:38;4.00;;;3.00;;
53925;SDS011;39836;52.754;6.866;2023-02-28T11:23:04;3.72;;;2.78;;
53925;SDS011;39836;52.754;6.866;2023-02-28T11:25:36;4.50;;;2.95;;
53925;SDS011;39836;52.754;6.866;2023-02-28T11:28:06;4.50;;;3.00;;
53925;SDS011;39836;52.754;6.866;2023-02-28T11:31:15;6.63;;;2.88;;
53925;SDS011;39836;52.754;6.866;2023-02-28T11:33:51;6.28;;;2.90;;
53925;SDS011;39836;52.754;6.866;2023-02-28T11:36:25;5.38;;;3.20;;
53925;SDS011;39836;52.754;6.866;2023-02-28T11:38:54;4.13;;;2.90;;
53925;SDS011;39836;52.754;6.866;2023-02-28T11:41:38;3.80;;;3.05;;
53925;SDS011;39836;52.754;6.866;2023-02-28T11:49:30;3.58;;;2.70;;
53925;SDS011;39836;52.754;6.866;2023-02-28T12:03:07;6.65;;;3.25;;
53925;SDS011;39836;52.754;6.866;2023-02-28T12:05:46;7.10;;;3.30;;
53925;SDS011;39836;52.754;6.866;2023-02-28T12:19:16;5.25;;;3.08;;
53925;SDS011;39836;52.754;6.866;2023-02-28T12:26:55;3.63;;;2.80;;
53925;SDS011;39836;52.754;6.866;2023-02-28T12:29:29;4.55;;;3.50;;
53925;SDS011;39836;52.754;6.866;2023-02-28T12:32:01;6.53;;;3.22;;
53925;SDS011;39836;52.754;6.866;2023-02-28T12:34:42;5.53;;;3.58;;
53925;SDS011;39836;52.754;6.866;2023-02-28T12:37:17;6.97;;;3.33;;
53925;SDS011;39836;52.754;6.866;2023-02-28T12:39:49;6.55;;;3.42;;
53925;SDS011;39836;52.754;6.866;2023-02-28T12:42:28;6.32;;;3.55;;
53925;SDS011;39836;52.754;6.866;2023-02-28T12:44:58;4.27;;;2.97;;
53925;SDS011;39836;52.754;6.866;2023-02-28T12:47:27;5.10;;;3.42;;
53925;SDS011;39836;52.754;6.866;2023-02-28T12:55:03;5.30;;;2.97;;
53925;SDS011;39836;52.754;6.866;2023-02-28T12:57:45;5.00;;;2.97;;
53925;SDS011;39836;52.754;6.866;2023-02-28T13:00:21;7.45;;;3.03;;
53925;SDS011;39836;52.754;6.866;2023-02-28T13:03:06;4.50;;;2.83;;
53925;SDS011;39836;52.754;6.866;2023-02-28T13:10:55;4.53;;;3.20;;
53925;SDS011;39836;52.754;6.866;2023-02-28T13:13:25;4.45;;;2.90;;
53925;SDS011;39836;52.754;6.866;2023-02-28T13:15:58;7.07;;;3.38;;
53925;SDS011;39836;52.754;6.866;2023-02-28T13:21:02;5.43;;;3.33;;
53925;SDS011;39836;52.754;6.866;2023-02-28T13:26:21;4.60;;;2.67;;
53925;SDS011;39836;52.754;6.866;2023-02-28T13:31:18;7.00;;;2.97;;
53925;SDS011;39836;52.754;6.866;2023-02-28T13:38:50;5.95;;;2.08;;
53925;SDS011;39836;52.754;6.866;2023-02-28T13:44:14;3.40;;;2.15;;
53925;SDS011;39836;52.754;6.866;2023-02-28T13:51:51;3.40;;;2.10;;
53925;SDS011;39836;52.754;6.866;2023-02-28T13:57:20;3.58;;;2.20;;
53925;SDS011;39836;52.754;6.866;2023-02-28T14:05:13;5.25;;;2.58;;
53925;SDS011;39836;52.754;6.866;2023-02-28T14:07:47;3.67;;;2.35;;
53925;SDS011;39836;52.754;6.866;2023-02-28T14:10:22;4.22;;;2.25;;
53925;SDS011;39836;52.754;6.866;2023-02-28T14:18:02;3.97;;;2.00;;
53925;SDS011;39836;52.754;6.866;2023-02-28T14:20:35;2.70;;;1.90;;
53925;SDS011;39836;52.754;6.866;2023-02-28T14:23:07;4.85;;;2.17;;
53925;SDS011;39836;52.754;6.866;2023-02-28T14:25:40;4.05;;;2.22;;
53925;SDS011;39836;52.754;6.866;2023-02-28T14:31:29;4.30;;;2.10;;
53925;SDS011;39836;52.754;6.866;2023-02-28T14:34:15;2.97;;;1.90;;
53925;SDS011;39836;52.754;6.866;2023-02-28T14:36:42;3.42;;;1.95;;
53925;SDS011;39836;52.754;6.866;2023-02-28T14:39:13;3.53;;;1.80;;
53925;SDS011;39836;52.754;6.866;2023-02-28T14:41:41;5.97;;;2.85;;
53925;SDS011;39836;52.754;6.866;2023-02-28T14:46:49;4.55;;;2.10;;
53925;SDS011;39836;52.754;6.866;2023-02-28T14:49:26;4.68;;;2.22;;
53925;SDS011;39836;52.754;6.866;2023-02-28T14:54:28;5.00;;;2.17;;
53925;SDS011;39836;52.754;6.866;2023-02-28T14:56:54;3.95;;;1.92;;
53925;SDS011;39836;52.754;6.866;2023-02-28T14:59:28;4.60;;;2.05;;
53925;SDS011;39836;52.754;6.866;2023-02-28T15:04:59;5.40;;;2.33;;
53925;SDS011;39836;52.754;6.866;2023-02-28T15:07:26;2.92;;;2.15;;
53925;SDS011;39836;52.754;6.866;2023-02-28T15:12:41;4.30;;;2.33;;
53925;SDS011;39836;52.754;6.866;2023-02-28T15:15:25;3.63;;;2.25;;
53925;SDS011;39836;52.754;6.866;2023-02-28T15:21:01;7.53;;;2.67;;
53925;SDS011;39836;52.754;6.866;2023-02-28T15:23:30;6.57;;;3.03;;
53925;SDS011;39836;52.754;6.866;2023-02-28T15:25:56;3.10;;;2.50;;
53925;SDS011;39836;52.754;6.866;2023-02-28T15:28:23;3.80;;;2.60;;
53925;SDS011;39836;52.754;6.866;2023-02-28T15:30:53;3.90;;;2.60;;
53925;SDS011;39836;52.754;6.866;2023-02-28T15:33:28;5.68;;;2.85;;
53925;SDS011;39836;52.754;6.866;2023-02-28T15:36:13;3.90;;;2.72;;
53925;SDS011;39836;52.754;6.866;2023-02-28T15:38:42;6.47;;;3.20;;
53925;SDS011;39836;52.754;6.866;2023-02-28T15:41:22;8.48;;;3.15;;
53925;SDS011;39836;52.754;6.866;2023-02-28T15:46:43;8.23;;;3.30;;
53925;SDS011;39836;52.754;6.866;2023-02-28T15:49:20;6.07;;;3.20;;
53925;SDS011;39836;52.754;6.866;2023-02-28T15:51:48;3.92;;;2.90;;
53925;SDS011;39836;52.754;6.866;2023-02-28T15:54:24;11.07;;;5.68;;
53925;SDS011;39836;52.754;6.866;2023-02-28T15:57:25;7.18;;;4.30;;
53925;SDS011;39836;52.754;6.866;2023-02-28T15:59:54;5.20;;;3.33;;
53925;SDS011;39836;52.754;6.866;2023-02-28T16:02:44;5.05;;;3.40;;
53925;SDS011;39836;52.754;6.866;2023-02-28T16:07:37;5.70;;;2.92;;
53925;SDS011;39836;52.754;6.866;2023-02-28T16:10:05;7.38;;;3.58;;
53925;SDS011;39836;52.754;6.866;2023-02-28T16:12:32;5.03;;;3.17;;
53925;SDS011;39836;52.754;6.866;2023-02-28T16:15:22;4.63;;;2.97;;
53925;SDS011;39836;52.754;6.866;2023-02-28T16:17:51;5.55;;;3.53;;
53925;SDS011;39836;52.754;6.866;2023-02-28T16:20:18;5.90;;;3.42;;
53925;SDS011;39836;52.754;6.866;2023-02-28T16:23:03;4.60;;;3.38;;
53925;SDS011;39836;52.754;6.866;2023-02-28T16:25:34;6.38;;;3.63;;
53925;SDS011;39836;52.754;6.866;2023-02-28T16:28:01;7.43;;;3.50;;
53925;SDS011;39836;52.754;6.866;2023-02-28T16:30:28;7.13;;;3.72;;
53925;SDS011;39836;52.754;6.866;2023-02-28T16:32:57;5.25;;;3.50;;
53925;SDS011;39836;52.754;6.866;2023-02-28T16:35:23;6.00;;;3.47;;
53925;SDS011;39836;52.754;6.866;2023-02-28T16:37:50;5.35;;;3.45;;
53925;SDS011;39836;52.754;6.866;2023-02-28T16:40:18;6.22;;;3.80;;
53925;SDS011;39836;52.754;6.866;2023-02-28T16:42:46;6.85;;;3.90;;
53925;SDS011;39836;52.754;6.866;2023-02-28T16:45:17;4.68;;;3.67;;
53925;SDS011;39836;52.754;6.866;2023-02-28T16:47:46;5.88;;;3.55;;
53925;SDS011;39836;52.754;6.866;2023-02-28T16:50:15;5.47;;;3.38;;
53925;SDS011;39836;52.754;6.866;2023-02-28T16:52:46;4.72;;;3.60;;
53925;SDS011;39836;52.754;6.866;2023-02-28T16:55:13;5.20;;;3.30;;
53925;SDS011;39836;52.754;6.866;2023-02-28T16:57:38;5.38;;;3.80;;
53925;SDS011;39836;52.754;6.866;2023-02-28T17:00:05;5.35;;;3.70;;
53925;SDS011;39836;52.754;6.866;2023-02-28T17:02:33;6.03;;;3.50;;
53925;SDS011;39836;52.754;6.866;2023-02-28T17:04:59;6.75;;;3.60;;
53925;SDS011;39836;52.754;6.866;2023-02-28T17:07:25;5.22;;;3.45;;
53925;SDS011;39836;52.754;6.866;2023-02-28T17:09:50;5.97;;;3.38;;
53925;SDS011;39836;52.754;6.866;2023-02-28T17:12:16;10.48;;;3.65;;
53925;SDS011;39836;52.754;6.866;2023-02-28T17:14:42;8.50;;;4.25;;
53925;SDS011;39836;52.754;6.866;2023-02-28T17:17:09;7.60;;;4.40;;
53925;SDS011;39836;52.754;6.866;2023-02-28T17:19:45;5.20;;;3.85;;
53925;SDS011;39836;52.754;6.866;2023-02-28T17:22:10;11.07;;;4.22;;
53925;SDS011;39836;52.754;6.866;2023-02-28T17:24:36;8.25;;;4.38;;
53925;SDS011;39836;52.754;6.866;2023-02-28T17:27:03;6.43;;;4.32;;